• Join FlightAware (Why Join?)
  • Login
  • US Flag 
10:41AM EDT


 

Airport Tracker/Info


-or-


 

Live Flight TrackerFlight Track Log ✈ DAL6055 ✈ 12-Apr-2013 ✈ KSDF - KDTW

Flight Track Log - Related Links

Times and Time Zones

All times are in EDT time to prevent confusion due to time zone crossing. See the DAL6055 flight status page for this flight to view local times or setup timezone preferences in your user account.

Time Position Orientation Groundspeed Altitude Reporting Facility
EDT Latitude Longitude Course Direction KTS MPH feet Rate Location/Type
11:38AM 38.1444 -85.7167 165° South 165 190 1,900  Level FAA TRACON SMA TRACON (SMA)
11:38AM 38.1256 -85.7103 165° South 178 205 2,700 2,340 Climbing FAA TRACON SMA TRACON (SMA)
11:38AM 38.1100 -85.7050 165° South 187 215 3,500 2,220 Climbing FAA TRACON SMA TRACON (SMA)
11:39AM 38.0942 -85.7067 185° South 193 222 4,200 2,100 Climbing FAA TRACON SMA TRACON (SMA)
11:39AM 38.0811 -85.7183 215° Southwest 192 221 4,900 2,400 Climbing FAA TRACON SMA TRACON (SMA)
11:39AM 38.0736 -85.7411 247° West 185 213 5,800 2,700 Climbing FAA TRACON SMA TRACON (SMA)
11:40AM 38.0689 -85.7594 252° West 180 207 6,700 2,700 Climbing FAA TRACON SMA TRACON (SMA)
11:40AM 38.0658 -85.7842 261° West 182 209 7,600 2,700 Climbing FAA TRACON SMA TRACON (SMA)
11:40AM 38.0669 -85.8039 274° West 184 212 8,500 2,520 Climbing FAA TRACON SMA TRACON (SMA)
11:41AM 38.0678 -85.8239 273° West 182 209 9,300 2,220 Climbing FAA TRACON SMA TRACON (SMA)
11:41AM 38.0689 -85.8436 274° West 183 211 10,000 2,220 Climbing FAA TRACON SMA TRACON (SMA)
11:41AM 38.0750 -85.8675 288° West 190 219 10,800 1,920 Climbing FAA TRACON SMA TRACON (SMA)
11:42AM 38.0903 -85.8808 326° Northwest 216 249 11,300 1,620 Climbing FAA TRACON SMA TRACON (SMA)
11:42AM 38.1114 -85.8803 North 248 285 11,900 2,100 Climbing FAA TRACON SMA TRACON (SMA)
11:42AM 38.1361 -85.8617 31° Northeast 270 311 12,700 1,920 Climbing FAA TRACON SMA TRACON (SMA)
11:43AM 38.1575 -85.8481 27° Northeast 276 318 13,200 1,500 Climbing FAA TRACON SMA TRACON (SMA)
11:43AM 38.1803 -85.8347 25° Northeast 287 330 13,700 1,800 Climbing FAA TRACON SMA TRACON (SMA)
11:43AM 38.2114 -85.8164 25° Northeast 319 367 14,400 1,920 Climbing FAA TRACON SMA TRACON (SMA)
11:44AM 38.2378 -85.7978 29° Northeast 347 399 15,000 1,800 Climbing FAA TRACON SMA TRACON (SMA)
11:44AM 38.2622 -85.7769 34° Northeast 349 402 15,600 1,800 Climbing FAA TRACON SMA TRACON (SMA)
11:44AM 38.2847 -85.7564 36° Northeast 328 377 16,200 1,620 Climbing FAA TRACON SMA TRACON (SMA)
11:45AM 38.3117 -85.7328 35° Northeast 307 353 16,700 1,260 Climbing FAA TRACON SMA TRACON (SMA)
11:45AM 38.3339 -85.7136 34° Northeast 309 356 17,100 1,200 Climbing FAA TRACON SMA TRACON (SMA)
11:45AM 38.3569 -85.6953 32° Northeast 316 364 17,500 1,500 Climbing FAA TRACON SMA TRACON (SMA)
11:46AM 38.3867 -85.6714 32° Northeast 325 374 18,200 1,740 Climbing FAA TRACON SMA TRACON (SMA)
11:46AM 38.4172 -85.6475 31° Northeast 332 382 18,800 1,680 Climbing FAA TRACON SMA TRACON (SMA)
11:46AM 38.4358 -85.6333 31° Northeast 336 387 19,200 1,500 Climbing FAA TRACON SMA TRACON (SMA)
11:47AM 38.4608 -85.6142 31° Northeast 340 391 19,700 1,800 Climbing FAA TRACON SMA TRACON (SMA)
11:47AM 38.4922 -85.5900 31° Northeast 344 396 20,400 1,800 Climbing FAA TRACON SMA TRACON (SMA)
11:47AM 38.5178 -85.5703 31° Northeast 347 399 20,900 1,800 Climbing FAA TRACON SMA TRACON (SMA)
11:48AM 38.5503 -85.5453 31° Northeast 350 403 21,600 1,620 Climbing FAA TRACON SMA TRACON (SMA)
11:48AM 38.5761 -85.5261 30° Northeast 353 406 22,000 1,140 Climbing FAA TRACON SMA TRACON (SMA)
11:48AM 38.6031 -85.5056 31° Northeast 360 414 22,400 1,320 Climbing FAA TRACON SMA TRACON (SMA)
11:49AM 38.6367 -85.4797 31° Northeast 366 421 22,900 900 Climbing FAA TRACON SMA TRACON (SMA)
11:49AM 38.6642 -85.4586 31° Northeast 371 427 23,000 120 Climbing FAA TRACON SMA TRACON (SMA)
11:49AM 38.6928 -85.4369 31° Northeast 384 442 23,000  Level FAA TRACON SMA TRACON (SMA)
11:50AM 38.7219 -85.4136 32° Northeast 398 458 23,000  Level FAA TRACON SMA TRACON (SMA)
11:50AM 38.7597 -85.3858 30° Northeast 408 470 23,000  Level FAA TRACON SMA TRACON (SMA)
11:50AM 38.7894 -85.3625 31° Northeast 409 471 23,000  Level FAA TRACON SMA TRACON (SMA)
11:51AM 38.8281 -85.3347 29° Northeast 411 473 23,000  Level FAA TRACON SMA TRACON (SMA)
11:51AM 38.8578 -85.3100 33° Northeast 413 475 23,000  Level FAA TRACON SMA TRACON (SMA)
11:51AM 38.8886 -85.2872 30° Northeast 415 478 23,000  Level FAA TRACON SMA TRACON (SMA)
11:52AM 38.9267 -85.2578 31° Northeast 415 478 23,000  Level FAA TRACON SMA TRACON (SMA)
11:52AM 38.9572 -85.2344 31° Northeast 416 479 23,000  Level FAA TRACON SMA TRACON (SMA)
11:52AM 38.9864 -85.2078 35° Northeast 416 479 23,000  Level FAA TRACON SMA TRACON (SMA)
11:53AM 39.0183 -85.1869 27° Northeast 416 479 23,000  Level FAA TRACON SMA TRACON (SMA)
11:53AM 39.0567 -85.1578 31° Northeast 418 481 23,000  Level FAA TRACON SMA TRACON (SMA)
11:53AM 39.0719 -85.1456 32° Northeast 419 482 23,000  Level FAA TRACON SMA TRACON (SMA)
11:53AM 39.0994 -85.1208 35° Northeast 416 479 23,000  Level Indianapolis Center
11:54AM 39.2000 -85.0417 31° Northeast 417 480 23,000  Level Indianapolis Center
11:55AM 39.2994 -84.9642 31° Northeast 416 479 23,000  Level Indianapolis Center
11:56AM 39.3978 -84.8867 31° Northeast 410 472 23,000  Level Indianapolis Center
11:58AM 39.4975 -84.8097 31° Northeast 412 474 23,000  Level Indianapolis Center
11:59AM 39.6125 -84.7181 32° Northeast 411 473 23,000  Level Indianapolis Center
12:00PM 39.7119 -84.6397 31° Northeast 413 475 23,000  Level Indianapolis Center
12:01PM 39.8114 -84.5611 31° Northeast 413 475 23,000  Level Indianapolis Center
12:02PM 39.9128 -84.4808 31° Northeast 419 482 23,000  Level Indianapolis Center
12:03PM 40.0128 -84.4075 29° Northeast 413 475 23,000  Level Indianapolis Center
12:04PM 40.1181 -84.3986 North 378 435 23,000  Level Indianapolis Center
12:05PM 40.2231 -84.4017 359° North 373 429 23,000  Level Indianapolis Center
12:06PM 40.3264 -84.4036 359° North 368 423 23,000  Level Indianapolis Center
12:07PM 40.4294 -84.4067 359° North 366 421 23,000  Level Indianapolis Center
12:08PM 40.5317 -84.4092 359° North 363 418 23,000  Level Indianapolis Center
12:09PM 40.6344 -84.4122 359° North 365 420 23,000  Level Indianapolis Center
12:10PM 40.7369 -84.4156 359° North 365 420 23,000  Level Indianapolis Center
12:11PM 40.8761 -84.4197 359° North 346 398 23,000  Level Cleveland Center
12:12PM 40.9761 -84.4228 359° North 351 404 23,000 -420 Level Cleveland Center
12:13PM 41.0803 -84.4261 359° North 362 417 22,200 -960 Descending Cleveland Center
12:14PM 41.1864 -84.4297 359° North 367 422 21,200 -1,080 Descending Cleveland Center
12:15PM 41.2886 -84.4331 359° North 367 422 20,100 -1,080 Descending Cleveland Center
12:16PM 41.3928 -84.4336 360° North 367 422 19,100 -1,200 Descending Cleveland Center
12:17PM 41.4886 -84.4367 359° North 362 417 17,800 -1,200 Descending Cleveland Center
12:18PM 41.5822 -84.4394 359° North 351 404 16,700 -1,140 Descending Cleveland Center
12:19PM 41.6281 -84.4419 358° North 329 379 16,100 -1,140 Descending Cleveland Center
12:19PM 41.6683 -84.4222 20° North 323 372 15,600 -1,140 Descending Cleveland Center
12:20PM 41.6972 -84.3711 53° Northeast 330 380 15,000 -1,140 Descending Cleveland Center
12:20PM 41.7194 -84.3250 57° Northeast 296 341 14,500 -1,200 Descending Cleveland Center
12:21PM 41.7403 -84.2622 66° East 327 376 13,800 -1,200 Descending Cleveland Center
12:21PM 41.7586 -84.2106 65° Northeast 301 346 13,300 -1,140 Descending Cleveland Center
12:22PM 41.7789 -84.1614 61° Northeast 324 373 12,800 -1,140 Descending Cleveland Center
12:22PM 41.7994 -84.1042 64° Northeast 307 353 12,200 -540 Descending Cleveland Center
12:23PM 41.8464 -84.0008 59° Northeast 312 359 12,000 -180 Descending Cleveland Center
12:23PM 41.8706 -83.9631 49° Northeast 358 412 12,000  Level Cleveland Center
12:24PM 41.9081 -83.8953 53° Northeast 332 382 12,000  Level Cleveland Center
12:25PM 41.9472 -83.8386 47° Northeast 378 435 12,000  Level Cleveland Center
12:25PM 41.9836 -83.7986 39° Northeast 355 409 12,000  Level Cleveland Center
12:25PM 42.0114 -83.7719 35° Northeast 394 453 12,000  Level Cleveland Center
12:26PM 42.0736 -83.7108 36° Northeast 376 433 12,000  Level Cleveland Center
12:27PM 42.1164 -83.6708 35° Northeast 403 464 12,000  Level Cleveland Center
12:27PM 42.1614 -83.6225 39° Northeast 390 449 12,000  Level Cleveland Center
12:28PM 42.2000 -83.5881 33° Northeast 352 405 12,000 -540 Level Cleveland Center
12:28PM 42.2278 -83.5556 41° Northeast 364 419 11,500 -1,380 Descending Cleveland Center
12:29PM 42.2725 -83.5211 30° Northeast 310 357 10,600 -1,500 Descending Cleveland Center
12:30PM 42.3528 -83.4856 18° North 279 321 9,300 -1,320 Descending Cleveland Center
12:31PM 42.4228 -83.4297 30° Northeast 259 298 7,900 -1,380 Descending Cleveland Center
12:32PM 42.4806 -83.3678 38° Northeast 254 292 6,400 -1,500 Descending Cleveland Center
12:33PM 42.5075 -83.2928 64° Northeast 242 278 4,900 -1,020 Descending Cleveland Center
12:34PM 42.4931 -83.1992 102° East 223 257 4,400 -540 Descending Cleveland Center